sensor_id;sensor_type;location;lat;lon;timestamp;P1;durP1;ratioP1;P2;durP2;ratioP2
66546;SDS011;53400;50.364;14.874;2022-12-07T00:02:12;5.43;;;2.00;;
66546;SDS011;53400;50.364;14.874;2022-12-07T00:04:38;5.25;;;2.00;;
66546;SDS011;53400;50.364;14.874;2022-12-07T00:07:03;5.65;;;1.95;;
66546;SDS011;53400;50.364;14.874;2022-12-07T00:09:29;5.63;;;2.00;;
66546;SDS011;53400;50.364;14.874;2022-12-07T00:11:55;5.00;;;1.90;;
66546;SDS011;53400;50.364;14.874;2022-12-07T00:14:21;4.13;;;1.73;;
66546;SDS011;53400;50.364;14.874;2022-12-07T00:16:48;7.30;;;2.22;;
66546;SDS011;53400;50.364;14.874;2022-12-07T00:19:16;6.80;;;2.22;;
66546;SDS011;53400;50.364;14.874;2022-12-07T00:21:42;5.13;;;2.10;;
66546;SDS011;53400;50.364;14.874;2022-12-07T00:24:09;4.65;;;1.63;;
66546;SDS011;53400;50.364;14.874;2022-12-07T00:26:36;5.63;;;2.00;;
66546;SDS011;53400;50.364;14.874;2022-12-07T00:29:04;4.55;;;1.73;;
66546;SDS011;53400;50.364;14.874;2022-12-07T00:31:32;3.97;;;1.98;;
66546;SDS011;53400;50.364;14.874;2022-12-07T00:34:01;4.28;;;1.70;;
66546;SDS011;53400;50.364;14.874;2022-12-07T00:36:28;5.15;;;2.20;;
66546;SDS011;53400;50.364;14.874;2022-12-07T00:38:54;4.07;;;1.50;;
66546;SDS011;53400;50.364;14.874;2022-12-07T00:41:22;5.72;;;1.85;;
66546;SDS011;53400;50.364;14.874;2022-12-07T00:43:50;5.30;;;2.00;;
66546;SDS011;53400;50.364;14.874;2022-12-07T00:46:17;4.65;;;2.08;;
66546;SDS011;53400;50.364;14.874;2022-12-07T00:48:43;6.05;;;1.90;;
66546;SDS011;53400;50.364;14.874;2022-12-07T00:51:09;6.30;;;1.80;;
66546;SDS011;53400;50.364;14.874;2022-12-07T00:53:38;5.72;;;1.80;;
66546;SDS011;53400;50.364;14.874;2022-12-07T00:56:05;5.32;;;1.92;;
66546;SDS011;53400;50.364;14.874;2022-12-07T00:58:31;5.57;;;2.05;;
66546;SDS011;53400;50.364;14.874;2022-12-07T01:00:59;5.68;;;1.65;;
66546;SDS011;53400;50.364;14.874;2022-12-07T01:03:25;5.85;;;1.70;;
66546;SDS011;53400;50.364;14.874;2022-12-07T01:05:51;4.32;;;1.70;;
66546;SDS011;53400;50.364;14.874;2022-12-07T01:08:20;4.70;;;1.38;;
66546;SDS011;53400;50.364;14.874;2022-12-07T01:10:47;4.30;;;1.48;;
66546;SDS011;53400;50.364;14.874;2022-12-07T01:13:14;4.35;;;1.85;;
66546;SDS011;53400;50.364;14.874;2022-12-07T01:15:40;4.25;;;1.40;;
66546;SDS011;53400;50.364;14.874;2022-12-07T01:18:07;4.57;;;1.70;;
66546;SDS011;53400;50.364;14.874;2022-12-07T01:20:33;3.55;;;1.42;;
66546;SDS011;53400;50.364;14.874;2022-12-07T01:22:59;4.78;;;1.67;;
66546;SDS011;53400;50.364;14.874;2022-12-07T01:25:25;6.00;;;1.60;;
66546;SDS011;53400;50.364;14.874;2022-12-07T01:27:53;3.85;;;1.50;;
66546;SDS011;53400;50.364;14.874;2022-12-07T01:30:18;4.03;;;1.50;;
66546;SDS011;53400;50.364;14.874;2022-12-07T01:32:44;4.13;;;1.75;;
66546;SDS011;53400;50.364;14.874;2022-12-07T01:35:10;5.00;;;1.70;;
66546;SDS011;53400;50.364;14.874;2022-12-07T01:37:36;4.53;;;1.75;;
66546;SDS011;53400;50.364;14.874;2022-12-07T01:40:04;4.63;;;1.63;;
66546;SDS011;53400;50.364;14.874;2022-12-07T01:42:32;4.78;;;1.80;;
66546;SDS011;53400;50.364;14.874;2022-12-07T01:48:12;5.03;;;1.42;;
66546;SDS011;53400;50.364;14.874;2022-12-07T01:50:40;6.13;;;1.70;;
66546;SDS011;53400;50.364;14.874;2022-12-07T01:53:09;4.95;;;1.73;;
66546;SDS011;53400;50.364;14.874;2022-12-07T01:55:37;3.85;;;1.30;;
66546;SDS011;53400;50.364;14.874;2022-12-07T01:58:06;5.80;;;1.73;;
66546;SDS011;53400;50.364;14.874;2022-12-07T02:00:32;5.60;;;1.65;;
66546;SDS011;53400;50.364;14.874;2022-12-07T02:03:00;4.13;;;1.58;;
66546;SDS011;53400;50.364;14.874;2022-12-07T02:05:31;4.00;;;1.58;;
66546;SDS011;53400;50.364;14.874;2022-12-07T02:07:59;4.25;;;1.60;;
66546;SDS011;53400;50.364;14.874;2022-12-07T02:10:26;4.72;;;1.58;;
66546;SDS011;53400;50.364;14.874;2022-12-07T02:12:54;4.50;;;1.75;;
66546;SDS011;53400;50.364;14.874;2022-12-07T02:15:24;5.05;;;1.42;;
66546;SDS011;53400;50.364;14.874;2022-12-07T02:17:59;4.10;;;1.50;;
66546;SDS011;53400;50.364;14.874;2022-12-07T02:26:04;5.28;;;1.70;;
66546;SDS011;53400;50.364;14.874;2022-12-07T02:28:56;4.88;;;1.75;;
66546;SDS011;53400;50.364;14.874;2022-12-07T02:31:43;4.75;;;1.63;;
66546;SDS011;53400;50.364;14.874;2022-12-07T02:34:14;5.57;;;2.03;;
66546;SDS011;53400;50.364;14.874;2022-12-07T02:36:46;4.20;;;1.60;;
66546;SDS011;53400;50.364;14.874;2022-12-07T02:39:18;4.05;;;1.55;;
66546;SDS011;53400;50.364;14.874;2022-12-07T02:41:51;6.72;;;2.03;;
66546;SDS011;53400;50.364;14.874;2022-12-07T02:44:23;4.95;;;2.13;;
66546;SDS011;53400;50.364;14.874;2022-12-07T02:46:53;5.53;;;1.75;;
66546;SDS011;53400;50.364;14.874;2022-12-07T02:49:22;5.57;;;1.98;;
66546;SDS011;53400;50.364;14.874;2022-12-07T02:51:49;4.22;;;1.83;;
66546;SDS011;53400;50.364;14.874;2022-12-07T02:54:18;4.75;;;1.63;;
66546;SDS011;53400;50.364;14.874;2022-12-07T02:56:46;4.03;;;1.70;;
66546;SDS011;53400;50.364;14.874;2022-12-07T02:59:17;4.80;;;1.73;;
66546;SDS011;53400;50.364;14.874;2022-12-07T03:01:55;6.32;;;2.00;;
66546;SDS011;53400;50.364;14.874;2022-12-07T03:04:34;3.80;;;1.70;;
66546;SDS011;53400;50.364;14.874;2022-12-07T03:07:10;5.65;;;1.95;;
66546;SDS011;53400;50.364;14.874;2022-12-07T03:09:45;5.70;;;2.40;;
66546;SDS011;53400;50.364;14.874;2022-12-07T03:12:16;5.20;;;2.22;;
66546;SDS011;53400;50.364;14.874;2022-12-07T03:14:49;5.47;;;2.10;;
66546;SDS011;53400;50.364;14.874;2022-12-07T03:17:23;6.57;;;2.22;;
66546;SDS011;53400;50.364;14.874;2022-12-07T03:19:53;5.75;;;2.40;;
66546;SDS011;53400;50.364;14.874;2022-12-07T03:22:23;5.70;;;2.00;;
66546;SDS011;53400;50.364;14.874;2022-12-07T03:24:51;5.00;;;2.08;;
66546;SDS011;53400;50.364;14.874;2022-12-07T03:27:21;5.20;;;1.80;;
66546;SDS011;53400;50.364;14.874;2022-12-07T03:29:53;5.68;;;2.20;;
66546;SDS011;53400;50.364;14.874;2022-12-07T03:32:25;5.53;;;2.30;;
66546;SDS011;53400;50.364;14.874;2022-12-07T03:34:56;7.00;;;2.20;;
66546;SDS011;53400;50.364;14.874;2022-12-07T03:37:29;5.10;;;1.85;;
66546;SDS011;53400;50.364;14.874;2022-12-07T03:40:02;5.53;;;2.13;;
66546;SDS011;53400;50.364;14.874;2022-12-07T03:42:33;5.53;;;2.00;;
66546;SDS011;53400;50.364;14.874;2022-12-07T03:45:01;6.20;;;2.30;;
66546;SDS011;53400;50.364;14.874;2022-12-07T03:47:29;6.03;;;2.47;;
66546;SDS011;53400;50.364;14.874;2022-12-07T03:49:59;5.53;;;2.25;;
66546;SDS011;53400;50.364;14.874;2022-12-07T03:52:32;8.47;;;2.60;;
66546;SDS011;53400;50.364;14.874;2022-12-07T03:55:04;6.82;;;2.97;;
66546;SDS011;53400;50.364;14.874;2022-12-07T03:57:33;5.32;;;2.25;;
66546;SDS011;53400;50.364;14.874;2022-12-07T04:00:04;7.55;;;2.25;;
66546;SDS011;53400;50.364;14.874;2022-12-07T04:02:32;5.70;;;2.67;;
66546;SDS011;53400;50.364;14.874;2022-12-07T04:04:59;5.65;;;2.50;;
66546;SDS011;53400;50.364;14.874;2022-12-07T04:07:24;6.95;;;2.90;;
66546;SDS011;53400;50.364;14.874;2022-12-07T04:09:50;7.55;;;2.60;;
66546;SDS011;53400;50.364;14.874;2022-12-07T04:12:16;6.28;;;2.63;;
66546;SDS011;53400;50.364;14.874;2022-12-07T04:14:42;6.18;;;2.70;;
66546;SDS011;53400;50.364;14.874;2022-12-07T04:17:10;5.95;;;2.63;;
66546;SDS011;53400;50.364;14.874;2022-12-07T04:19:36;7.80;;;3.35;;
66546;SDS011;53400;50.364;14.874;2022-12-07T04:22:02;8.93;;;3.30;;
66546;SDS011;53400;50.364;14.874;2022-12-07T04:24:29;8.38;;;3.38;;
66546;SDS011;53400;50.364;14.874;2022-12-07T04:26:55;8.77;;;3.35;;
66546;SDS011;53400;50.364;14.874;2022-12-07T04:29:21;8.95;;;2.88;;
66546;SDS011;53400;50.364;14.874;2022-12-07T04:31:48;7.05;;;3.00;;
66546;SDS011;53400;50.364;14.874;2022-12-07T04:34:16;8.55;;;3.92;;
66546;SDS011;53400;50.364;14.874;2022-12-07T04:36:43;10.93;;;3.83;;
66546;SDS011;53400;50.364;14.874;2022-12-07T04:41:42;8.07;;;3.85;;
66546;SDS011;53400;50.364;14.874;2022-12-07T04:44:08;8.93;;;3.75;;
66546;SDS011;53400;50.364;14.874;2022-12-07T04:46:34;8.55;;;3.50;;
66546;SDS011;53400;50.364;14.874;2022-12-07T04:49:00;10.55;;;3.45;;
66546;SDS011;53400;50.364;14.874;2022-12-07T04:51:28;6.28;;;2.65;;
66546;SDS011;53400;50.364;14.874;2022-12-07T04:53:55;7.53;;;3.33;;
66546;SDS011;53400;50.364;14.874;2022-12-07T04:56:21;10.18;;;4.30;;
66546;SDS011;53400;50.364;14.874;2022-12-07T04:58:48;7.90;;;3.30;;
66546;SDS011;53400;50.364;14.874;2022-12-07T05:01:15;7.63;;;3.38;;
66546;SDS011;53400;50.364;14.874;2022-12-07T05:03:42;8.43;;;3.55;;
66546;SDS011;53400;50.364;14.874;2022-12-07T05:06:09;10.70;;;3.92;;
66546;SDS011;53400;50.364;14.874;2022-12-07T05:08:37;8.38;;;3.10;;
66546;SDS011;53400;50.364;14.874;2022-12-07T05:11:04;8.68;;;3.33;;
66546;SDS011;53400;50.364;14.874;2022-12-07T05:13:31;7.97;;;3.50;;
66546;SDS011;53400;50.364;14.874;2022-12-07T05:15:57;7.45;;;3.47;;
66546;SDS011;53400;50.364;14.874;2022-12-07T05:18:24;8.85;;;3.60;;
66546;SDS011;53400;50.364;14.874;2022-12-07T05:20:50;7.15;;;3.25;;
66546;SDS011;53400;50.364;14.874;2022-12-07T05:23:16;7.43;;;3.33;;
66546;SDS011;53400;50.364;14.874;2022-12-07T05:25:44;9.40;;;3.75;;
66546;SDS011;53400;50.364;14.874;2022-12-07T05:28:10;10.20;;;4.07;;
66546;SDS011;53400;50.364;14.874;2022-12-07T05:30:36;8.02;;;3.40;;
66546;SDS011;53400;50.364;14.874;2022-12-07T05:33:02;7.93;;;3.92;;
66546;SDS011;53400;50.364;14.874;2022-12-07T05:35:28;8.38;;;3.90;;
66546;SDS011;53400;50.364;14.874;2022-12-07T05:37:55;8.15;;;3.65;;
66546;SDS011;53400;50.364;14.874;2022-12-07T05:40:20;8.50;;;3.78;;
66546;SDS011;53400;50.364;14.874;2022-12-07T05:42:48;7.40;;;3.17;;
66546;SDS011;53400;50.364;14.874;2022-12-07T05:45:14;10.45;;;4.07;;
66546;SDS011;53400;50.364;14.874;2022-12-07T05:47:40;7.57;;;3.33;;
66546;SDS011;53400;50.364;14.874;2022-12-07T05:50:06;8.15;;;3.63;;
66546;SDS011;53400;50.364;14.874;2022-12-07T05:52:32;8.90;;;3.88;;
66546;SDS011;53400;50.364;14.874;2022-12-07T05:54:58;8.60;;;3.60;;
66546;SDS011;53400;50.364;14.874;2022-12-07T05:57:24;9.52;;;3.60;;
66546;SDS011;53400;50.364;14.874;2022-12-07T05:59:51;8.30;;;3.53;;
66546;SDS011;53400;50.364;14.874;2022-12-07T06:02:17;9.63;;;4.00;;
66546;SDS011;53400;50.364;14.874;2022-12-07T06:04:44;9.10;;;3.50;;
66546;SDS011;53400;50.364;14.874;2022-12-07T06:07:12;8.30;;;3.75;;
66546;SDS011;53400;50.364;14.874;2022-12-07T06:09:39;7.88;;;3.20;;
66546;SDS011;53400;50.364;14.874;2022-12-07T06:12:06;8.40;;;3.75;;
66546;SDS011;53400;50.364;14.874;2022-12-07T06:14:54;8.00;;;3.72;;
66546;SDS011;53400;50.364;14.874;2022-12-07T06:17:20;9.57;;;4.07;;
66546;SDS011;53400;50.364;14.874;2022-12-07T06:19:46;9.20;;;4.20;;
66546;SDS011;53400;50.364;14.874;2022-12-07T06:22:12;7.45;;;3.75;;
66546;SDS011;53400;50.364;14.874;2022-12-07T06:24:38;9.52;;;4.43;;
66546;SDS011;53400;50.364;14.874;2022-12-07T06:27:05;8.55;;;3.60;;
66546;SDS011;53400;50.364;14.874;2022-12-07T06:29:31;8.75;;;4.22;;
66546;SDS011;53400;50.364;14.874;2022-12-07T06:31:58;8.73;;;3.92;;
66546;SDS011;53400;50.364;14.874;2022-12-07T06:34:25;8.07;;;3.80;;
66546;SDS011;53400;50.364;14.874;2022-12-07T06:36:52;11.60;;;4.07;;
66546;SDS011;53400;50.364;14.874;2022-12-07T06:39:20;9.23;;;4.13;;
66546;SDS011;53400;50.364;14.874;2022-12-07T06:41:48;11.50;;;4.30;;
66546;SDS011;53400;50.364;14.874;2022-12-07T06:44:14;8.63;;;3.83;;
66546;SDS011;53400;50.364;14.874;2022-12-07T06:46:40;9.98;;;4.03;;
66546;SDS011;53400;50.364;14.874;2022-12-07T06:49:08;7.22;;;3.25;;
66546;SDS011;53400;50.364;14.874;2022-12-07T06:51:34;7.60;;;3.38;;
66546;SDS011;53400;50.364;14.874;2022-12-07T06:54:01;9.35;;;3.15;;
66546;SDS011;53400;50.364;14.874;2022-12-07T06:56:28;5.38;;;2.47;;
66546;SDS011;53400;50.364;14.874;2022-12-07T06:58:54;8.43;;;3.30;;
66546;SDS011;53400;50.364;14.874;2022-12-07T07:01:20;7.50;;;3.03;;
66546;SDS011;53400;50.364;14.874;2022-12-07T07:03:46;10.18;;;3.83;;
66546;SDS011;53400;50.364;14.874;2022-12-07T07:06:14;9.23;;;4.15;;
66546;SDS011;53400;50.364;14.874;2022-12-07T07:08:40;7.93;;;4.10;;
66546;SDS011;53400;50.364;14.874;2022-12-07T07:11:07;7.40;;;3.63;;
66546;SDS011;53400;50.364;14.874;2022-12-07T07:13:33;8.68;;;3.83;;
66546;SDS011;53400;50.364;14.874;2022-12-07T07:16:00;8.40;;;3.25;;
66546;SDS011;53400;50.364;14.874;2022-12-07T07:18:26;8.20;;;3.88;;
66546;SDS011;53400;50.364;14.874;2022-12-07T07:20:53;7.85;;;3.25;;
66546;SDS011;53400;50.364;14.874;2022-12-07T07:23:20;10.35;;;4.68;;
66546;SDS011;53400;50.364;14.874;2022-12-07T07:25:47;9.65;;;4.40;;
66546;SDS011;53400;50.364;14.874;2022-12-07T07:28:13;10.30;;;5.13;;
66546;SDS011;53400;50.364;14.874;2022-12-07T07:30:40;12.18;;;5.28;;
66546;SDS011;53400;50.364;14.874;2022-12-07T07:33:06;11.02;;;4.80;;
66546;SDS011;53400;50.364;14.874;2022-12-07T07:35:33;10.15;;;4.40;;
66546;SDS011;53400;50.364;14.874;2022-12-07T07:37:59;9.93;;;4.50;;
66546;SDS011;53400;50.364;14.874;2022-12-07T07:40:27;12.27;;;5.18;;
66546;SDS011;53400;50.364;14.874;2022-12-07T07:42:56;9.90;;;4.70;;
66546;SDS011;53400;50.364;14.874;2022-12-07T07:45:23;10.07;;;4.82;;
66546;SDS011;53400;50.364;14.874;2022-12-07T07:47:50;10.23;;;5.13;;
66546;SDS011;53400;50.364;14.874;2022-12-07T07:50:16;11.32;;;4.07;;
66546;SDS011;53400;50.364;14.874;2022-12-07T07:52:43;11.95;;;5.68;;
66546;SDS011;53400;50.364;14.874;2022-12-07T07:55:09;11.50;;;4.95;;
66546;SDS011;53400;50.364;14.874;2022-12-07T07:57:37;11.50;;;5.40;;
66546;SDS011;53400;50.364;14.874;2022-12-07T08:00:04;11.00;;;5.47;;
66546;SDS011;53400;50.364;14.874;2022-12-07T08:02:32;11.32;;;5.25;;
66546;SDS011;53400;50.364;14.874;2022-12-07T08:04:58;12.65;;;5.38;;
66546;SDS011;53400;50.364;14.874;2022-12-07T08:07:24;12.27;;;5.25;;
66546;SDS011;53400;50.364;14.874;2022-12-07T08:09:50;13.50;;;5.55;;
66546;SDS011;53400;50.364;14.874;2022-12-07T08:12:16;12.50;;;6.00;;
66546;SDS011;53400;50.364;14.874;2022-12-07T08:14:44;11.32;;;5.38;;
66546;SDS011;53400;50.364;14.874;2022-12-07T08:17:09;11.68;;;4.93;;
66546;SDS011;53400;50.364;14.874;2022-12-07T08:19:35;10.73;;;5.43;;
66546;SDS011;53400;50.364;14.874;2022-12-07T08:22:01;11.35;;;5.90;;
66546;SDS011;53400;50.364;14.874;2022-12-07T08:24:27;12.48;;;5.45;;
66546;SDS011;53400;50.364;14.874;2022-12-07T08:26:53;11.48;;;5.40;;
66546;SDS011;53400;50.364;14.874;2022-12-07T08:29:19;9.85;;;4.82;;
66546;SDS011;53400;50.364;14.874;2022-12-07T08:31:47;11.35;;;5.55;;
66546;SDS011;53400;50.364;14.874;2022-12-07T08:34:13;11.32;;;5.68;;
66546;SDS011;53400;50.364;14.874;2022-12-07T08:36:39;9.15;;;4.93;;
66546;SDS011;53400;50.364;14.874;2022-12-07T08:39:05;10.27;;;4.32;;
66546;SDS011;53400;50.364;14.874;2022-12-07T08:41:31;10.90;;;4.97;;
66546;SDS011;53400;50.364;14.874;2022-12-07T08:43:57;8.00;;;3.88;;
66546;SDS011;53400;50.364;14.874;2022-12-07T08:46:24;10.43;;;4.85;;
66546;SDS011;53400;50.364;14.874;2022-12-07T08:48:55;11.77;;;5.10;;
66546;SDS011;53400;50.364;14.874;2022-12-07T08:53:53;9.95;;;4.18;;
66546;SDS011;53400;50.364;14.874;2022-12-07T08:56:20;10.45;;;5.35;;
66546;SDS011;53400;50.364;14.874;2022-12-07T08:58:47;10.50;;;5.30;;
66546;SDS011;53400;50.364;14.874;2022-12-07T09:01:13;9.65;;;4.47;;
66546;SDS011;53400;50.364;14.874;2022-12-07T09:03:39;10.55;;;4.50;;
66546;SDS011;53400;50.364;14.874;2022-12-07T09:06:07;9.13;;;4.63;;
66546;SDS011;53400;50.364;14.874;2022-12-07T09:08:34;10.00;;;4.20;;
66546;SDS011;53400;50.364;14.874;2022-12-07T09:11:04;10.50;;;4.75;;
66546;SDS011;53400;50.364;14.874;2022-12-07T09:13:30;8.00;;;3.55;;
66546;SDS011;53400;50.364;14.874;2022-12-07T09:15:56;9.63;;;5.22;;
66546;SDS011;53400;50.364;14.874;2022-12-07T09:18:22;9.20;;;4.80;;
66546;SDS011;53400;50.364;14.874;2022-12-07T09:20:49;8.70;;;4.43;;
66546;SDS011;53400;50.364;14.874;2022-12-07T09:23:16;8.52;;;4.80;;
66546;SDS011;53400;50.364;14.874;2022-12-07T09:25:42;10.65;;;5.07;;
66546;SDS011;53400;50.364;14.874;2022-12-07T09:28:08;9.13;;;4.63;;
66546;SDS011;53400;50.364;14.874;2022-12-07T09:30:34;7.72;;;3.72;;
66546;SDS011;53400;50.364;14.874;2022-12-07T09:33:00;11.90;;;5.38;;
66546;SDS011;53400;50.364;14.874;2022-12-07T09:35:26;8.90;;;4.63;;
66546;SDS011;53400;50.364;14.874;2022-12-07T09:37:53;7.32;;;3.00;;
66546;SDS011;53400;50.364;14.874;2022-12-07T09:40:20;9.75;;;4.25;;
66546;SDS011;53400;50.364;14.874;2022-12-07T09:42:48;8.55;;;4.20;;
66546;SDS011;53400;50.364;14.874;2022-12-07T09:45:17;9.77;;;4.88;;
66546;SDS011;53400;50.364;14.874;2022-12-07T09:47:46;9.68;;;4.80;;
66546;SDS011;53400;50.364;14.874;2022-12-07T09:50:13;9.63;;;4.38;;
66546;SDS011;53400;50.364;14.874;2022-12-07T09:52:41;10.07;;;4.20;;
66546;SDS011;53400;50.364;14.874;2022-12-07T09:55:09;9.30;;;4.57;;
66546;SDS011;53400;50.364;14.874;2022-12-07T09:57:38;10.88;;;4.93;;
66546;SDS011;53400;50.364;14.874;2022-12-07T10:00:10;10.10;;;4.57;;
66546;SDS011;53400;50.364;14.874;2022-12-07T10:02:39;7.75;;;3.17;;
66546;SDS011;53400;50.364;14.874;2022-12-07T10:05:07;8.32;;;4.18;;
66546;SDS011;53400;50.364;14.874;2022-12-07T10:07:38;12.23;;;5.07;;
66546;SDS011;53400;50.364;14.874;2022-12-07T10:10:09;13.73;;;6.15;;
66546;SDS011;53400;50.364;14.874;2022-12-07T10:12:52;13.75;;;5.53;;
66546;SDS011;53400;50.364;14.874;2022-12-07T10:15:20;10.32;;;4.20;;
66546;SDS011;53400;50.364;14.874;2022-12-07T10:17:47;10.30;;;4.18;;
66546;SDS011;53400;50.364;14.874;2022-12-07T10:20:16;9.18;;;4.05;;
66546;SDS011;53400;50.364;14.874;2022-12-07T10:22:54;11.85;;;4.55;;
66546;SDS011;53400;50.364;14.874;2022-12-07T10:25:26;9.52;;;4.13;;
66546;SDS011;53400;50.364;14.874;2022-12-07T10:27:59;7.72;;;3.47;;
66546;SDS011;53400;50.364;14.874;2022-12-07T10:30:27;10.02;;;4.80;;
66546;SDS011;53400;50.364;14.874;2022-12-07T10:32:53;8.90;;;4.15;;
66546;SDS011;53400;50.364;14.874;2022-12-07T10:35:20;8.45;;;4.25;;
66546;SDS011;53400;50.364;14.874;2022-12-07T10:37:48;10.70;;;5.20;;
66546;SDS011;53400;50.364;14.874;2022-12-07T10:40:25;10.35;;;5.28;;
66546;SDS011;53400;50.364;14.874;2022-12-07T10:43:02;10.18;;;5.13;;
66546;SDS011;53400;50.364;14.874;2022-12-07T10:45:29;11.13;;;5.60;;
66546;SDS011;53400;50.364;14.874;2022-12-07T10:47:58;9.38;;;4.35;;
66546;SDS011;53400;50.364;14.874;2022-12-07T10:50:35;10.23;;;4.85;;
66546;SDS011;53400;50.364;14.874;2022-12-07T10:53:20;11.07;;;4.40;;
66546;SDS011;53400;50.364;14.874;2022-12-07T10:59:01;9.52;;;4.68;;
66546;SDS011;53400;50.364;14.874;2022-12-07T11:01:45;10.27;;;5.05;;
66546;SDS011;53400;50.364;14.874;2022-12-07T11:06:55;10.38;;;4.78;;
66546;SDS011;53400;50.364;14.874;2022-12-07T11:09:40;10.90;;;5.53;;
66546;SDS011;53400;50.364;14.874;2022-12-07T11:12:19;11.73;;;5.53;;
66546;SDS011;53400;50.364;14.874;2022-12-07T11:14:56;10.07;;;5.05;;
66546;SDS011;53400;50.364;14.874;2022-12-07T11:17:31;10.13;;;4.75;;
66546;SDS011;53400;50.364;14.874;2022-12-07T11:22:32;10.50;;;5.22;;
66546;SDS011;53400;50.364;14.874;2022-12-07T11:25:10;9.75;;;4.68;;
66546;SDS011;53400;50.364;14.874;2022-12-07T11:27:44;6.65;;;3.15;;
66546;SDS011;53400;50.364;14.874;2022-12-07T11:30:18;6.32;;;3.17;;
66546;SDS011;53400;50.364;14.874;2022-12-07T11:32:52;8.70;;;4.03;;
66546;SDS011;53400;50.364;14.874;2022-12-07T11:35:32;9.98;;;4.20;;
66546;SDS011;53400;50.364;14.874;2022-12-07T11:38:07;10.57;;;4.72;;
66546;SDS011;53400;50.364;14.874;2022-12-07T11:40:38;10.73;;;4.72;;
66546;SDS011;53400;50.364;14.874;2022-12-07T11:43:09;9.85;;;4.85;;
66546;SDS011;53400;50.364;14.874;2022-12-07T11:45:43;9.95;;;4.90;;
66546;SDS011;53400;50.364;14.874;2022-12-07T11:48:14;8.82;;;4.03;;
66546;SDS011;53400;50.364;14.874;2022-12-07T11:50:43;9.95;;;4.53;;
66546;SDS011;53400;50.364;14.874;2022-12-07T11:53:14;10.45;;;4.53;;
66546;SDS011;53400;50.364;14.874;2022-12-07T11:55:47;8.80;;;4.68;;
66546;SDS011;53400;50.364;14.874;2022-12-07T11:58:22;9.43;;;4.68;;
66546;SDS011;53400;50.364;14.874;2022-12-07T12:01:05;11.27;;;5.00;;
66546;SDS011;53400;50.364;14.874;2022-12-07T12:03:40;9.10;;;4.15;;
66546;SDS011;53400;50.364;14.874;2022-12-07T12:06:11;9.20;;;4.45;;
66546;SDS011;53400;50.364;14.874;2022-12-07T12:08:38;11.05;;;4.75;;
66546;SDS011;53400;50.364;14.874;2022-12-07T12:11:15;8.88;;;4.20;;
66546;SDS011;53400;50.364;14.874;2022-12-07T12:14:07;7.50;;;3.30;;
66546;SDS011;53400;50.364;14.874;2022-12-07T12:16:52;7.75;;;3.78;;
66546;SDS011;53400;50.364;14.874;2022-12-07T12:19:32;8.43;;;3.55;;
66546;SDS011;53400;50.364;14.874;2022-12-07T12:22:06;7.03;;;3.08;;
66546;SDS011;53400;50.364;14.874;2022-12-07T12:24:37;8.73;;;3.85;;
66546;SDS011;53400;50.364;14.874;2022-12-07T12:27:06;6.75;;;2.88;;
66546;SDS011;53400;50.364;14.874;2022-12-07T12:29:35;6.75;;;3.15;;
66546;SDS011;53400;50.364;14.874;2022-12-07T12:32:06;7.25;;;3.38;;
66546;SDS011;53400;50.364;14.874;2022-12-07T12:34:39;5.85;;;2.97;;
66546;SDS011;53400;50.364;14.874;2022-12-07T12:37:17;7.05;;;2.80;;
66546;SDS011;53400;50.364;14.874;2022-12-07T12:43:21;8.30;;;3.10;;
66546;SDS011;53400;50.364;14.874;2022-12-07T12:46:37;6.70;;;2.28;;
66546;SDS011;53400;50.364;14.874;2022-12-07T12:55:13;7.65;;;2.35;;
66546;SDS011;53400;50.364;14.874;2022-12-07T12:57:45;5.28;;;2.08;;
66546;SDS011;53400;50.364;14.874;2022-12-07T13:00:16;6.57;;;2.35;;
66546;SDS011;53400;50.364;14.874;2022-12-07T13:02:47;5.43;;;1.85;;
66546;SDS011;53400;50.364;14.874;2022-12-07T13:05:18;5.15;;;1.60;;
66546;SDS011;53400;50.364;14.874;2022-12-07T13:07:56;6.45;;;2.20;;
66546;SDS011;53400;50.364;14.874;2022-12-07T13:13:28;6.82;;;1.83;;
66546;SDS011;53400;50.364;14.874;2022-12-07T13:18:55;7.13;;;2.00;;
66546;SDS011;53400;50.364;14.874;2022-12-07T13:21:42;4.78;;;1.90;;
66546;SDS011;53400;50.364;14.874;2022-12-07T13:24:09;5.25;;;1.90;;
66546;SDS011;53400;50.364;14.874;2022-12-07T13:26:38;6.88;;;2.00;;
66546;SDS011;53400;50.364;14.874;2022-12-07T13:29:09;2.92;;;1.25;;
66546;SDS011;53400;50.364;14.874;2022-12-07T13:31:38;5.18;;;1.70;;
66546;SDS011;53400;50.364;14.874;2022-12-07T13:36:57;7.05;;;1.95;;
66546;SDS011;53400;50.364;14.874;2022-12-07T13:39:25;4.28;;;1.52;;
66546;SDS011;53400;50.364;14.874;2022-12-07T13:41:52;4.35;;;1.42;;
66546;SDS011;53400;50.364;14.874;2022-12-07T13:44:20;3.85;;;1.50;;
66546;SDS011;53400;50.364;14.874;2022-12-07T13:46:49;4.43;;;1.80;;
66546;SDS011;53400;50.364;14.874;2022-12-07T13:49:20;3.90;;;1.52;;
66546;SDS011;53400;50.364;14.874;2022-12-07T13:51:48;5.35;;;1.70;;
66546;SDS011;53400;50.364;14.874;2022-12-07T13:54:17;5.47;;;1.85;;
66546;SDS011;53400;50.364;14.874;2022-12-07T13:56:43;5.45;;;1.90;;
66546;SDS011;53400;50.364;14.874;2022-12-07T13:59:13;4.32;;;1.70;;
66546;SDS011;53400;50.364;14.874;2022-12-07T14:01:42;6.53;;;1.58;;
66546;SDS011;53400;50.364;14.874;2022-12-07T14:04:18;5.05;;;1.95;;
66546;SDS011;53400;50.364;14.874;2022-12-07T14:06:53;5.63;;;1.58;;
66546;SDS011;53400;50.364;14.874;2022-12-07T14:09:21;4.93;;;1.73;;
66546;SDS011;53400;50.364;14.874;2022-12-07T14:11:48;6.90;;;1.90;;
66546;SDS011;53400;50.364;14.874;2022-12-07T14:14:16;4.68;;;1.85;;
66546;SDS011;53400;50.364;14.874;2022-12-07T14:16:55;4.88;;;1.90;;
66546;SDS011;53400;50.364;14.874;2022-12-07T14:22:20;6.32;;;2.17;;
66546;SDS011;53400;50.364;14.874;2022-12-07T14:24:50;6.18;;;2.17;;
66546;SDS011;53400;50.364;14.874;2022-12-07T14:27:17;5.80;;;2.00;;
66546;SDS011;53400;50.364;14.874;2022-12-07T14:29:44;6.03;;;2.05;;
66546;SDS011;53400;50.364;14.874;2022-12-07T14:32:16;6.15;;;2.15;;
66546;SDS011;53400;50.364;14.874;2022-12-07T14:34:53;9.60;;;2.50;;
66546;SDS011;53400;50.364;14.874;2022-12-07T14:37:20;4.68;;;1.80;;
66546;SDS011;53400;50.364;14.874;2022-12-07T14:39:46;4.88;;;1.65;;
66546;SDS011;53400;50.364;14.874;2022-12-07T14:42:14;5.80;;;2.13;;
66546;SDS011;53400;50.364;14.874;2022-12-07T14:44:39;5.35;;;1.80;;
66546;SDS011;53400;50.364;14.874;2022-12-07T14:47:07;5.50;;;1.70;;
66546;SDS011;53400;50.364;14.874;2022-12-07T14:49:34;7.55;;;2.80;;
66546;SDS011;53400;50.364;14.874;2022-12-07T14:52:00;6.10;;;2.80;;
66546;SDS011;53400;50.364;14.874;2022-12-07T14:54:26;7.22;;;2.70;;
66546;SDS011;53400;50.364;14.874;2022-12-07T14:56:56;6.63;;;2.38;;
66546;SDS011;53400;50.364;14.874;2022-12-07T14:59:23;5.65;;;2.15;;
66546;SDS011;53400;50.364;14.874;2022-12-07T15:01:49;6.47;;;2.90;;
66546;SDS011;53400;50.364;14.874;2022-12-07T15:04:15;5.20;;;2.60;;
66546;SDS011;53400;50.364;14.874;2022-12-07T15:06:41;7.25;;;2.80;;
66546;SDS011;53400;50.364;14.874;2022-12-07T15:09:09;6.05;;;2.60;;
66546;SDS011;53400;50.364;14.874;2022-12-07T15:11:36;6.05;;;1.98;;
66546;SDS011;53400;50.364;14.874;2022-12-07T15:14:02;5.65;;;2.20;;
66546;SDS011;53400;50.364;14.874;2022-12-07T15:16:36;4.22;;;1.90;;
66546;SDS011;53400;50.364;14.874;2022-12-07T15:19:02;4.90;;;2.22;;
66546;SDS011;53400;50.364;14.874;2022-12-07T15:21:29;5.82;;;2.10;;
66546;SDS011;53400;50.364;14.874;2022-12-07T15:23:55;5.75;;;2.35;;
66546;SDS011;53400;50.364;14.874;2022-12-07T15:26:21;5.35;;;1.90;;